Airfield :
LOGIN :

Register | Disclaimer

   EN    FR    IT 

 










Legend :    VFR   Marginal VFR   IFR   Intensive IFR   Very Intensive IFR
Visi :
Ceiling :
>= 8 km
>= 3000ft
5 to 8 km
1000 to 3000 ft
1500m to 5 km
500 to 1000 ft
800 to 1500m
200 to 500 ft
< 800m
< 200 ft
Symbols :   Thunderstorms  Fog  Heavy snow  Heavy precipitations  Wind > 20 kt
SIGMETs :     Misc.  Thunderstorms  Icing  Turbulence  Mountain Waves  Volcanic Ashes






- Airport Elevation : 1649 ft
- IATA code : HHN


EDFH - Frankfurt-Hahn Rhineland-Palatinate

CURRENT METAR :
  • 280120Z 22008KT 3000 BR BKN002 01/01 Q1010

EXPIRED METARs :
  • 280050Z 22009KT 0900 R21/P2000N FG BKN001 01/01 Q1011
  • 280020Z 22008KT 0300 R21/0750U FG VV/// 01/01 Q1011
  • 272350Z 24009KT 0500 R21/0700N FG VV/// 01/01 Q1012
  • 272320Z 23007KT 200V270 0700 R21/1000N FG VV/// 01/01 Q1012
  • 272250Z 25008KT 0500 R21/0650N FG VV/// 01/01 Q1012

TAF TAF EDFH
Valid from the 28 at 00:00 until the 29 at 00:00 UTC


272300Z 2800/2824 24008KT 2000 BR FEW001 BKN004
TEMPO 2800/2803 0100 -DZ FG VV000
TEMPO 2803/2813 1000 RADZ OVC001
BECMG 2810/2813 26015G25KT
BECMG 2813/2817 6000 SCT008
TEMPO 2813/2818 28025G35KT 3000 -SHRA BKN004 BKN015TCU
TEMPO 2818/2822 28020G30KT BKN008
BECMG 2822/2824 26013KT BKN004



MET'MAP, your aeronautical weather chart ! - Copyright ORBIFLY December 2007 - Disclaimer

ORBIFLY MET'MAP TEAM :

Programming & Development : Alexandra Zaïnal
Concept & original design : Baudouin d'Aumeries
Assistance for programming : Marc-Olivier Méhu
Technical & hardware support : Manuel Goepfert

Contact : metmap@orbifly.com




SOURCES & CREDITS :

   NOAA